Chie Maru — JL6639 — position and weather

sailwx.info

Track history (hours):
 
Tides and Currents Weather Stations Pressure Air Temp Water Temp Dewpoint Dewpoint Depression Visibility Wind Speed Wind Dir Waves Ship Positions

Chie Maru

Last reported at 2018-Jun-13 15:56 UTC. Time now 2018-Jun-18 22:37 UTC.
Position N 33°44' E 135°10'.

Length 103 m; draft 6.5 m.

Type: Tanker. MMSI: 431501653.

Date/timePositionNaut miles runAvg speedWind from/ knotsBaromVisibWave heightAir tempDewpointWater temp
2018-Jun-13 15:56N 33°44' E 135°10'613.7
2018-Jun-13 15:28N 33°49' E 135°05'613.9
2018-Jun-13 15:00N 33°54' E 135°00'713.6
2018-Jun-13 14:30N 34°01' E 134°59'613.2
2018-Jun-13 14:00N 34°07' E 134°59'713.2
2018-Jun-13 13:30N 34°14' E 134°58'612.3
2018-Jun-13 13:00N 34°20' E 134°59'611.2
2018-Jun-13 12:30N 34°24' E 135°03'612.7
2018-Jun-13 12:00N 34°28' E 135°10'612.5
2018-Jun-13 11:30N 34°32' E 135°15'612.5
2018-Jun-13 11:00N 34°36' E 135°21'4 8.1
2018-Jun-13 10:30N 34°35' E 135°26'0 0.3
2018-Jun-13 10:00N 34°34' E 135°26'0 0.0
2018-Jun-13 09:30N 34°34' E 135°26'0 0.0
2018-Jun-13 09:00N 34°34' E 135°26'0 0.0
2018-Jun-13 08:30N 34°34' E 135°26'0 0.0
2018-Jun-13 08:00N 34°34' E 135°26'0 0.0
2018-Jun-13 07:27N 34°34' E 135°26'0 0.0
2018-Jun-13 07:00N 34°34' E 135°26'0 0.0
2018-Jun-13 06:30N 34°34' E 135°26'0 0.0
2018-Jun-13 05:55N 34°34' E 135°26'0 0.0
2018-Jun-13 05:29N 34°34' E 135°26'0 0.0
2018-Jun-13 04:59N 34°34' E 135°26'0 0.0
2018-Jun-13 04:27N 34°34' E 135°26'0 0.0
2018-Jun-13 04:00N 34°34' E 135°26'0 0.0
2018-Jun-13 03:27N 34°34' E 135°26'0 0.0
2018-Jun-13 02:59N 34°34' E 135°26'0 0.1
2018-Jun-13 02:27N 34°35' E 135°26'3 7.2
2018-Jun-13 02:01N 34°36' E 135°23'612.1
2018-Jun-13 01:30N 34°31' E 135°18'4 8.1
2018-Jun-13 01:00N 34°29' E 135°14'510.0
2018-Jun-13 00:30N 34°27' E 135°09'510.8
2018-Jun-13 00:00N 34°23' E 135°04'510.3
2018-Jun-12 23:30N 34°19' E 135°00'510.9
2018-Jun-12 23:00N 34°14' E 134°59'611.1
2018-Jun-12 22:30N 34°08' E 134°59'611.4
2018-Jun-12 22:00N 34°02' E 134°60'510.8
2018-Jun-12 21:30N 33°57' E 135°00'611.7
2018-Jun-12 21:00N 33°51' E 135°01'712.0
2018-Jun-12 20:28N 33°46' E 135°06'  
2018-Jun-09 12:28N 35°06' E 139°40'612.3
2018-Jun-09 11:59N 35°10' E 139°45'611.1
2018-Jun-09 11:25N 35°16' E 139°46'511.7
2018-Jun-09 11:00N 35°20' E 139°42'611.0
2018-Jun-09 10:29N 35°25' E 139°44'611.9
2018-Jun-09 10:00N 35°29' E 139°50'611.4
2018-Jun-09 09:30N 35°31' E 139°56'6 0.6
2018-Jun-08 23:41N 35°32' E 140°03'1010.1
2018-Jun-08 22:40N 35°31' E 139°51'0 2.1
2018-Jun-08 22:30N 35°31' E 139°50'0 0.0
2018-Jun-08 20:13N 35°31' E 139°50'0 0.2
2018-Jun-08 19:55N 35°31' E 139°50'0 0.0
2018-Jun-08 19:31N 35°31' E 139°50'0 0.0
2018-Jun-08 19:01N 35°31' E 139°50'0 0.0
2018-Jun-08 18:31N 35°31' E 139°50'0 0.0
2018-Jun-08 17:58N 35°31' E 139°50'0 0.0
2018-Jun-08 17:25N 35°31' E 139°50'0 0.0
2018-Jun-08 17:01N 35°31' E 139°50'0 0.0
2018-Jun-08 16:31N 35°31' E 139°50'0 0.0
2018-Jun-08 16:00N 35°31' E 139°50'0 0.0
2018-Jun-08 15:31N 35°31' E 139°50'0 0.0
2018-Jun-08 15:00N 35°31' E 139°50'0 0.0
2018-Jun-08 14:30N 35°31' E 139°50'0 0.0
2018-Jun-08 13:57N 35°31' E 139°50'0 0.0
2018-Jun-08 13:21N 35°31' E 139°50'0 0.0
2018-Jun-08 12:46N 35°31' E 139°50'0 0.0
2018-Jun-08 11:55N 35°31' E 139°50'0 0.2
2018-Jun-08 11:30N 35°31' E 139°50'2 4.3
2018-Jun-08 11:00N 35°32' E 139°48'0 0.0
2018-Jun-08 04:57N 35°32' E 139°48'2 3.3
2018-Jun-08 04:29N 35°31' E 139°49'2 3.3
2018-Jun-08 04:00N 35°31' E 139°51'0 0.1
2018-Jun-08 03:23N 35°31' E 139°51'0 0.0
2018-Jun-08 02:59N 35°31' E 139°51'0 0.0
2018-Jun-08 02:29N 35°31' E 139°51'0 0.0
2018-Jun-08 01:53N 35°31' E 139°51'0 0.0
2018-Jun-08 01:29N 35°31' E 139°51'0 0.0
2018-Jun-08 00:59N 35°31' E 139°51'0 0.0
2018-Jun-08 00:26N 35°31' E 139°51'0 0.0
2018-Jun-07 23:59N 35°31' E 139°51'0 0.0
2018-Jun-07 23:23N 35°31' E 139°51'0 0.0
2018-Jun-07 22:44N 35°31' E 139°51'0 0.0
2018-Jun-07 22:29N 35°31' E 139°51'0 0.0
2018-Jun-07 21:59N 35°31' E 139°51'0 0.0
2018-Jun-07 21:26N 35°31' E 139°51'0 0.0
2018-Jun-07 20:59N 35°31' E 139°51'0 0.0
2018-Jun-07 20:29N 35°31' E 139°51'0 0.0
2018-Jun-07 19:59N 35°31' E 139°51'0 0.0
2018-Jun-07 19:29N 35°31' E 139°51'0 0.0
2018-Jun-07 18:59N 35°31' E 139°51'0 0.0
2018-Jun-07 18:29N 35°31' E 139°51'0 0.0
2018-Jun-07 17:56N 35°31' E 139°51'0 0.0
2018-Jun-07 17:23N 35°31' E 139°51'0 0.0
2018-Jun-07 16:56N 35°31' E 139°51'0 0.0
2018-Jun-07 16:26N 35°31' E 139°51'0 0.0
2018-Jun-07 15:59N 35°31' E 139°51'0 0.0
2018-Jun-07 15:17N 35°31' E 139°51'0 0.0
2018-Jun-07 14:59N 35°31' E 139°51'0 0.0
2018-Jun-07 14:29N 35°31' E 139°51'0 0.0
2018-Jun-07 13:56N 35°31' E 139°51'0 0.0
2018-Jun-07 13:29N 35°31' E 139°51'0 0.0
2018-Jun-07 12:59N 35°31' E 139°51'0 0.0
2018-Jun-07 12:29N 35°31' E 139°51'2 5.0
2018-Jun-07 11:59N 35°28' E 139°51'612.7
2018-Jun-07 11:30N 35°24' E 139°46'611.8
2018-Jun-07 11:01N 35°18' E 139°45'611.8
2018-Jun-07 10:30N 35°12' E 139°47'24611.0
2018-Jun-06 12:07N 33°46' E 135°08'112.0
2018-Jun-06 11:59N 33°47' E 135°06'611.8
2018-Jun-06 11:30N 33°51' E 135°02'611.7
2018-Jun-06 11:00N 33°57' E 134°60'612.0
2018-Jun-06 10:29N 34°03' E 134°60'612.2
2018-Jun-06 09:59N 34°09' E 134°59'713.9
2018-Jun-06 09:30N 34°16' E 134°59'612.9
2018-Jun-06 09:00N 34°22' E 135°01'612.6
2018-Jun-06 08:30N 34°26' E 135°07'612.6
2018-Jun-06 08:00N 34°30' E 135°13'611.4
2018-Jun-06 07:30N 34°34' E 135°18'510.9
2018-Jun-06 07:00N 34°36' E 135°24'2 4.3
2018-Jun-06 06:30N 34°35' E 135°26'0 0.0
2018-Jun-05 22:42N 34°35' E 135°26'0 1.0
2018-Jun-05 22:30N 34°35' E 135°26'3 5.4
2018-Jun-05 22:00N 34°36' E 135°23'4 8.1
2018-Jun-05 21:30N 34°36' E 135°18'0 0.6
2018-Jun-05 20:44N 34°36' E 135°18'0 0.0
2018-Jun-05 20:14N 34°36' E 135°18'0 0.0
2018-Jun-05 19:56N 34°36' E 135°18'0 0.0
2018-Jun-05 18:56N 34°36' E 135°18'0 0.0
2018-Jun-05 18:14N 34°36' E 135°18'0 0.0
2018-Jun-05 17:56N 34°36' E 135°18'0 0.0
2018-Jun-05 17:20N 34°36' E 135°18'0 0.0
2018-Jun-05 16:56N 34°36' E 135°18'0 0.0
2018-Jun-05 16:26N 34°36' E 135°18'0 0.1
2018-Jun-05 15:56N 34°36' E 135°18'0 0.0
2018-Jun-05 15:26N 34°36' E 135°18'0 0.0
2018-Jun-05 14:56N 34°36' E 135°18'0 0.0
2018-Jun-05 14:26N 34°36' E 135°18'2 4.3
2018-Jun-05 14:00N 34°34' E 135°17'713.1
2018-Jun-05 13:30N 34°29' E 135°12'713.6
2018-Jun-05 13:00N 34°24' E 135°06'713.9
2018-Jun-05 12:30N 34°19' E 135°00'612.3
2018-Jun-05 12:00N 34°13' E 134°59'612.5
2018-Jun-05 11:30N 34°07' E 134°60'713.6
2018-Jun-05 11:00N 33°60' E 135°00'713.2
2018-Jun-05 10:30N 33°53' E 135°00'1213.2
2018-Jun-05 09:36N 33°44' E 135°08'23912.0
2018-Jun-04 13:41N 35°05' E 139°40'613.2
2018-Jun-04 13:15N 35°09' E 139°44'314.0
2018-Jun-04 13:00N 35°12' E 139°46'612.1
2018-Jun-04 12:30N 35°18' E 139°44'612.4
2018-Jun-04 12:00N 35°24' E 139°43'612.9
2018-Jun-04 11:30N 35°29' E 139°48'3 6.0
2018-Jun-04 11:00N 35°32' E 139°48'0 0.0
2018-Jun-04 04:05N 35°32' E 139°48'0 0.7
2018-Jun-04 04:00N 35°32' E 139°48'2 3.3
2018-Jun-04 03:30N 35°30' E 139°49'1 0.2
2018-Jun-03 22:31N 35°31' E 139°50'0 0.1
2018-Jun-03 22:28N 35°31' E 139°50'0 0.0
2018-Jun-03 21:22N 35°31' E 139°50'0 0.1
2018-Jun-03 20:34N 35°31' E 139°50'0 0.0
2018-Jun-03 20:25N 35°31' E 139°50'0 0.0
2018-Jun-03 19:55N 35°31' E 139°50'0 0.1
2018-Jun-03 19:28N 35°31' E 139°50'0 0.9
2018-Jun-03 19:00N 35°30' E 139°51'4 7.5
2018-Jun-03 18:30N 35°27' E 139°49'612.0
2018-Jun-03 18:00N 35°22' E 139°45'510.8
2018-Jun-03 17:30N 35°16' E 139°46'611.2
2018-Jun-03 17:00N 35°11' E 139°47'  
Track history (hours):
 
Tides and Currents Weather Stations Pressure Air Temp Water Temp Dewpoint Dewpoint Depression Visibility Wind Speed Wind Dir Waves Ship Positions

Chie Maru

Last reported at 2018-Jun-13 15:56 UTC. Time now 2018-Jun-18 22:37 UTC.
Position N 33°44' E 135°10'.

Length 103 m; draft 6.5 m.

Type: Tanker. MMSI: 431501653.

Date/timePositionNaut miles runAvg speedWind from/ knotsBaromVisibWave heightAir tempDewpointWater temp
2018-Jun-13 15:56N 33°44' E 135°10'613.7
2018-Jun-13 15:28N 33°49' E 135°05'613.9
2018-Jun-13 15:00N 33°54' E 135°00'713.6
2018-Jun-13 14:30N 34°01' E 134°59'613.2
2018-Jun-13 14:00N 34°07' E 134°59'713.2
2018-Jun-13 13:30N 34°14' E 134°58'612.3
2018-Jun-13 13:00N 34°20' E 134°59'611.2
2018-Jun-13 12:30N 34°24' E 135°03'612.7
2018-Jun-13 12:00N 34°28' E 135°10'612.5
2018-Jun-13 11:30N 34°32' E 135°15'612.5
2018-Jun-13 11:00N 34°36' E 135°21'4 8.1
2018-Jun-13 10:30N 34°35' E 135°26'0 0.3
2018-Jun-13 10:00N 34°34' E 135°26'0 0.0
2018-Jun-13 09:30N 34°34' E 135°26'0 0.0
2018-Jun-13 09:00N 34°34' E 135°26'0 0.0
2018-Jun-13 08:30N 34°34' E 135°26'0 0.0
2018-Jun-13 08:00N 34°34' E 135°26'0 0.0
2018-Jun-13 07:27N 34°34' E 135°26'0 0.0
2018-Jun-13 07:00N 34°34' E 135°26'0 0.0
2018-Jun-13 06:30N 34°34' E 135°26'0 0.0
2018-Jun-13 05:55N 34°34' E 135°26'0 0.0
2018-Jun-13 05:29N 34°34' E 135°26'0 0.0
2018-Jun-13 04:59N 34°34' E 135°26'0 0.0
2018-Jun-13 04:27N 34°34' E 135°26'0 0.0
2018-Jun-13 04:00N 34°34' E 135°26'0 0.0
2018-Jun-13 03:27N 34°34' E 135°26'0 0.0
2018-Jun-13 02:59N 34°34' E 135°26'0 0.1
2018-Jun-13 02:27N 34°35' E 135°26'3 7.2
2018-Jun-13 02:01N 34°36' E 135°23'612.1
2018-Jun-13 01:30N 34°31' E 135°18'4 8.1
2018-Jun-13 01:00N 34°29' E 135°14'510.0
2018-Jun-13 00:30N 34°27' E 135°09'510.8
2018-Jun-13 00:00N 34°23' E 135°04'510.3
2018-Jun-12 23:30N 34°19' E 135°00'510.9
2018-Jun-12 23:00N 34°14' E 134°59'611.1
2018-Jun-12 22:30N 34°08' E 134°59'611.4
2018-Jun-12 22:00N 34°02' E 134°60'510.8
2018-Jun-12 21:30N 33°57' E 135°00'611.7
2018-Jun-12 21:00N 33°51' E 135°01'712.0
2018-Jun-12 20:28N 33°46' E 135°06'  
2018-Jun-09 12:28N 35°06' E 139°40'612.3
2018-Jun-09 11:59N 35°10' E 139°45'611.1
2018-Jun-09 11:25N 35°16' E 139°46'511.7
2018-Jun-09 11:00N 35°20' E 139°42'611.0
2018-Jun-09 10:29N 35°25' E 139°44'611.9
2018-Jun-09 10:00N 35°29' E 139°50'611.4
2018-Jun-09 09:30N 35°31' E 139°56'6 0.6
2018-Jun-08 23:41N 35°32' E 140°03'1010.1
2018-Jun-08 22:40N 35°31' E 139°51'0 2.1
2018-Jun-08 22:30N 35°31' E 139°50'0 0.0
2018-Jun-08 20:13N 35°31' E 139°50'0 0.2
2018-Jun-08 19:55N 35°31' E 139°50'0 0.0
2018-Jun-08 19:31N 35°31' E 139°50'0 0.0
2018-Jun-08 19:01N 35°31' E 139°50'0 0.0
2018-Jun-08 18:31N 35°31' E 139°50'0 0.0
2018-Jun-08 17:58N 35°31' E 139°50'0 0.0
2018-Jun-08 17:25N 35°31' E 139°50'0 0.0
2018-Jun-08 17:01N 35°31' E 139°50'0 0.0
2018-Jun-08 16:31N 35°31' E 139°50'0 0.0
2018-Jun-08 16:00N 35°31' E 139°50'0 0.0
2018-Jun-08 15:31N 35°31' E 139°50'0 0.0
2018-Jun-08 15:00N 35°31' E 139°50'0 0.0
2018-Jun-08 14:30N 35°31' E 139°50'0 0.0
2018-Jun-08 13:57N 35°31' E 139°50'0 0.0
2018-Jun-08 13:21N 35°31' E 139°50'0 0.0
2018-Jun-08 12:46N 35°31' E 139°50'0 0.0
2018-Jun-08 11:55N 35°31' E 139°50'0 0.2
2018-Jun-08 11:30N 35°31' E 139°50'2 4.3
2018-Jun-08 11:00N 35°32' E 139°48'0 0.0
2018-Jun-08 04:57N 35°32' E 139°48'2 3.3
2018-Jun-08 04:29N 35°31' E 139°49'2 3.3
2018-Jun-08 04:00N 35°31' E 139°51'0 0.1
2018-Jun-08 03:23N 35°31' E 139°51'0 0.0
2018-Jun-08 02:59N 35°31' E 139°51'0 0.0
2018-Jun-08 02:29N 35°31' E 139°51'0 0.0
2018-Jun-08 01:53N 35°31' E 139°51'0 0.0
2018-Jun-08 01:29N 35°31' E 139°51'0 0.0
2018-Jun-08 00:59N 35°31' E 139°51'0 0.0
2018-Jun-08 00:26N 35°31' E 139°51'0 0.0
2018-Jun-07 23:59N 35°31' E 139°51'0 0.0
2018-Jun-07 23:23N 35°31' E 139°51'0 0.0
2018-Jun-07 22:44N 35°31' E 139°51'0 0.0
2018-Jun-07 22:29N 35°31' E 139°51'0 0.0
2018-Jun-07 21:59N 35°31' E 139°51'0 0.0
2018-Jun-07 21:26N 35°31' E 139°51'0 0.0
2018-Jun-07 20:59N 35°31' E 139°51'0 0.0
2018-Jun-07 20:29N 35°31' E 139°51'0 0.0
2018-Jun-07 19:59N 35°31' E 139°51'0 0.0
2018-Jun-07 19:29N 35°31' E 139°51'0 0.0
2018-Jun-07 18:59N 35°31' E 139°51'0 0.0
2018-Jun-07 18:29N 35°31' E 139°51'0 0.0
2018-Jun-07 17:56N 35°31' E 139°51'0 0.0
2018-Jun-07 17:23N 35°31' E 139°51'0 0.0
2018-Jun-07 16:56N 35°31' E 139°51'0 0.0
2018-Jun-07 16:26N 35°31' E 139°51'0 0.0
2018-Jun-07 15:59N 35°31' E 139°51'0 0.0
2018-Jun-07 15:17N 35°31' E 139°51'0 0.0
2018-Jun-07 14:59N 35°31' E 139°51'0 0.0
2018-Jun-07 14:29N 35°31' E 139°51'0 0.0
2018-Jun-07 13:56N 35°31' E 139°51'0 0.0
2018-Jun-07 13:29N 35°31' E 139°51'0 0.0
2018-Jun-07 12:59N 35°31' E 139°51'0 0.0
2018-Jun-07 12:29N 35°31' E 139°51'2 5.0
2018-Jun-07 11:59N 35°28' E 139°51'612.7
2018-Jun-07 11:30N 35°24' E 139°46'611.8
2018-Jun-07 11:01N 35°18' E 139°45'611.8
2018-Jun-07 10:30N 35°12' E 139°47'24611.0
2018-Jun-06 12:07N 33°46' E 135°08'112.0
2018-Jun-06 11:59N 33°47' E 135°06'611.8
2018-Jun-06 11:30N 33°51' E 135°02'611.7
2018-Jun-06 11:00N 33°57' E 134°60'612.0
2018-Jun-06 10:29N 34°03' E 134°60'612.2
2018-Jun-06 09:59N 34°09' E 134°59'713.9
2018-Jun-06 09:30N 34°16' E 134°59'612.9
2018-Jun-06 09:00N 34°22' E 135°01'612.6
2018-Jun-06 08:30N 34°26' E 135°07'612.6
2018-Jun-06 08:00N 34°30' E 135°13'611.4
2018-Jun-06 07:30N 34°34' E 135°18'510.9
2018-Jun-06 07:00N 34°36' E 135°24'2 4.3
2018-Jun-06 06:30N 34°35' E 135°26'0 0.0
2018-Jun-05 22:42N 34°35' E 135°26'0 1.0
2018-Jun-05 22:30N 34°35' E 135°26'3 5.4
2018-Jun-05 22:00N 34°36' E 135°23'4 8.1
2018-Jun-05 21:30N 34°36' E 135°18'0 0.6
2018-Jun-05 20:44N 34°36' E 135°18'0 0.0
2018-Jun-05 20:14N 34°36' E 135°18'0 0.0
2018-Jun-05 19:56N 34°36' E 135°18'0 0.0
2018-Jun-05 18:56N 34°36' E 135°18'0 0.0
2018-Jun-05 18:14N 34°36' E 135°18'0 0.0
2018-Jun-05 17:56N 34°36' E 135°18'0 0.0
2018-Jun-05 17:20N 34°36' E 135°18'0 0.0
2018-Jun-05 16:56N 34°36' E 135°18'0 0.0
2018-Jun-05 16:26N 34°36' E 135°18'0 0.1
2018-Jun-05 15:56N 34°36' E 135°18'0 0.0
2018-Jun-05 15:26N 34°36' E 135°18'0 0.0
2018-Jun-05 14:56N 34°36' E 135°18'0 0.0
2018-Jun-05 14:26N 34°36' E 135°18'2 4.3
2018-Jun-05 14:00N 34°34' E 135°17'713.1
2018-Jun-05 13:30N 34°29' E 135°12'713.6
2018-Jun-05 13:00N 34°24' E 135°06'713.9
2018-Jun-05 12:30N 34°19' E 135°00'612.3
2018-Jun-05 12:00N 34°13' E 134°59'612.5
2018-Jun-05 11:30N 34°07' E 134°60'713.6
2018-Jun-05 11:00N 33°60' E 135°00'713.2
2018-Jun-05 10:30N 33°53' E 135°00'1213.2
2018-Jun-05 09:36N 33°44' E 135°08'23912.0
2018-Jun-04 13:41N 35°05' E 139°40'613.2
2018-Jun-04 13:15N 35°09' E 139°44'314.0
2018-Jun-04 13:00N 35°12' E 139°46'612.1
2018-Jun-04 12:30N 35°18' E 139°44'612.4
2018-Jun-04 12:00N 35°24' E 139°43'612.9
2018-Jun-04 11:30N 35°29' E 139°48'3 6.0
2018-Jun-04 11:00N 35°32' E 139°48'0 0.0
2018-Jun-04 04:05N 35°32' E 139°48'0 0.7
2018-Jun-04 04:00N 35°32' E 139°48'2 3.3
2018-Jun-04 03:30N 35°30' E 139°49'1 0.2
2018-Jun-03 22:31N 35°31' E 139°50'0 0.1
2018-Jun-03 22:28N 35°31' E 139°50'0 0.0
2018-Jun-03 21:22N 35°31' E 139°50'0 0.1
2018-Jun-03 20:34N 35°31' E 139°50'0 0.0
2018-Jun-03 20:25N 35°31' E 139°50'0 0.0
2018-Jun-03 19:55N 35°31' E 139°50'0 0.1
2018-Jun-03 19:28N 35°31' E 139°50'0 0.9
2018-Jun-03 19:00N 35°30' E 139°51'4 7.5
2018-Jun-03 18:30N 35°27' E 139°49'612.0
2018-Jun-03 18:00N 35°22' E 139°45'510.8
2018-Jun-03 17:30N 35°16' E 139°46'611.2
2018-Jun-03 17:00N 35°11' E 139°47'  

Dump ship's entire track history